createdAt,value
2023-05-04T00:00:13.449Z,25.61
2023-05-04T00:01:13.486Z,25.61
2023-05-04T00:02:13.533Z,25.61
2023-05-04T00:03:13.684Z,25.61
2023-05-04T00:04:13.591Z,25.61
2023-05-04T00:05:13.561Z,25.60
2023-05-04T00:06:13.583Z,25.61
2023-05-04T00:07:13.620Z,25.61
2023-05-04T00:08:13.635Z,25.61
2023-05-04T00:09:13.633Z,25.61
2023-05-04T00:10:13.660Z,25.61
2023-05-04T00:11:14.355Z,25.61
2023-05-04T00:12:13.727Z,25.61
2023-05-04T00:13:13.778Z,25.61
2023-05-04T00:14:13.755Z,25.61
2023-05-04T00:15:13.768Z,25.60
2023-05-04T00:16:13.820Z,25.60
2023-05-04T00:17:13.850Z,25.61
2023-05-04T00:18:13.850Z,25.60
2023-05-04T00:19:13.895Z,25.60
2023-05-04T00:20:13.925Z,25.60
2023-05-04T00:21:13.920Z,25.60
2023-05-04T00:22:13.969Z,25.59
2023-05-04T00:23:13.962Z,25.60
2023-05-04T00:24:13.994Z,25.60
2023-05-04T00:25:13.995Z,25.60
2023-05-04T00:26:14.041Z,25.60
2023-05-04T00:27:14.057Z,25.59
2023-05-04T00:28:14.101Z,25.59
2023-05-04T00:29:14.101Z,25.59
2023-05-04T00:30:14.135Z,25.59
2023-05-04T00:31:14.202Z,25.59
2023-05-04T00:32:14.205Z,25.59
2023-05-04T00:33:14.234Z,25.59
2023-05-04T00:34:14.262Z,25.59
2023-05-04T00:35:14.273Z,25.59
2023-05-04T00:36:14.306Z,25.58
2023-05-04T00:37:14.337Z,25.59
2023-05-04T00:38:14.334Z,25.59
2023-05-04T00:39:14.381Z,25.58
2023-05-04T00:40:14.383Z,25.59
2023-05-04T00:41:14.424Z,25.59
2023-05-04T00:42:14.455Z,25.58
2023-05-04T00:43:14.466Z,25.58
2023-05-04T00:44:14.492Z,25.59
2023-05-04T00:45:14.512Z,25.58
2023-05-04T00:46:14.567Z,25.58
2023-05-04T00:47:14.643Z,25.58
2023-05-04T00:48:14.619Z,25.57
2023-05-04T00:49:14.603Z,25.58
2023-05-04T00:50:14.637Z,25.57
2023-05-04T00:51:14.677Z,25.57
2023-05-04T00:52:14.719Z,25.57
2023-05-04T00:53:14.723Z,25.58
2023-05-04T00:54:14.724Z,25.58
2023-05-04T00:55:14.766Z,25.57
2023-05-04T00:56:14.788Z,25.57
2023-05-04T00:57:14.798Z,25.57
2023-05-04T00:58:14.827Z,25.57
2023-05-04T00:59:14.854Z,25.57
2023-05-04T01:00:14.863Z,25.57
2023-05-04T01:01:14.955Z,25.57
2023-05-04T01:02:14.907Z,25.57
2023-05-04T01:03:15.071Z,25.57
2023-05-04T01:04:15.010Z,25.57
2023-05-04T01:05:14.986Z,25.57
2023-05-04T01:06:14.998Z,25.57
2023-05-04T01:07:15.036Z,25.57
2023-05-04T01:08:15.050Z,25.56
2023-05-04T01:09:15.085Z,25.56
2023-05-04T01:10:15.112Z,25.57
2023-05-04T01:11:15.116Z,25.57
2023-05-04T01:12:15.144Z,25.56
2023-05-04T01:13:15.259Z,25.56
2023-05-04T01:14:15.211Z,25.56
2023-05-04T01:15:15.221Z,25.56
2023-05-04T01:16:15.267Z,25.56
2023-05-04T01:17:15.277Z,25.55
2023-05-04T01:18:15.490Z,25.55
2023-05-04T01:19:15.334Z,25.56
2023-05-04T01:20:15.358Z,25.56
2023-05-04T01:21:15.377Z,25.55
2023-05-04T01:22:15.402Z,25.56
2023-05-04T01:23:15.451Z,25.55
2023-05-04T01:24:15.453Z,25.55
2023-05-04T01:25:15.492Z,25.54
2023-05-04T01:26:15.503Z,25.54
2023-05-04T01:27:15.550Z,25.55
2023-05-04T01:28:15.571Z,25.55
2023-05-04T01:29:15.573Z,25.54
2023-05-04T01:30:15.602Z,25.54
2023-05-04T01:31:15.715Z,25.54
2023-05-04T01:32:15.662Z,25.55
2023-05-04T01:33:15.682Z,25.54
2023-05-04T01:34:15.725Z,25.54
2023-05-04T01:35:15.741Z,25.54
2023-05-04T01:36:15.785Z,25.54
2023-05-04T01:37:15.812Z,25.54
2023-05-04T01:38:15.833Z,25.54
2023-05-04T01:39:15.863Z,25.54
2023-05-04T01:40:15.919Z,25.54
2023-05-04T01:41:15.910Z,25.54
2023-05-04T01:42:15.966Z,25.54
2023-05-04T01:43:15.985Z,25.54
2023-05-04T01:44:15.999Z,25.53
2023-05-04T01:45:16.010Z,25.53
2023-05-04T01:46:16.108Z,25.53
2023-05-04T01:47:16.077Z,25.54
2023-05-04T01:48:16.101Z,25.53
2023-05-04T01:49:16.139Z,25.53
2023-05-04T01:50:16.167Z,25.53
2023-05-04T01:51:16.199Z,25.54
2023-05-04T01:52:16.229Z,25.53
2023-05-04T01:53:16.251Z,25.53
2023-05-04T01:54:16.296Z,25.52
2023-05-04T01:55:16.333Z,25.53
2023-05-04T01:56:16.363Z,25.53
2023-05-04T01:57:16.419Z,25.53
2023-05-04T01:58:16.430Z,25.53
2023-05-04T01:59:16.450Z,25.53
2023-05-04T02:00:16.470Z,25.52
2023-05-04T02:01:16.563Z,25.52
2023-05-04T02:02:16.549Z,25.52
2023-05-04T02:03:16.663Z,25.52
2023-05-04T02:04:16.600Z,25.53
2023-05-04T02:05:16.694Z,25.52
2023-05-04T02:06:16.674Z,25.52
2023-05-04T02:07:16.690Z,25.52
2023-05-04T02:08:16.721Z,25.52
2023-05-04T02:09:16.759Z,25.52
2023-05-04T02:10:16.786Z,25.51
2023-05-04T02:11:16.838Z,25.52
2023-05-04T02:12:16.869Z,25.52
2023-05-04T02:13:16.976Z,25.52
2023-05-04T02:14:16.911Z,25.51
2023-05-04T02:15:16.948Z,25.52
2023-05-04T02:16:17.035Z,25.51
2023-05-04T02:17:17.016Z,25.51
2023-05-04T02:18:17.053Z,25.51
2023-05-04T02:19:17.124Z,25.51
2023-05-04T02:20:17.096Z,25.51
2023-05-04T02:21:17.132Z,25.51
2023-05-04T02:22:17.177Z,25.50
2023-05-04T02:23:17.194Z,25.51
2023-05-04T02:24:17.224Z,25.50
2023-05-04T02:25:17.260Z,25.51
2023-05-04T02:26:17.331Z,25.51
2023-05-04T02:27:17.328Z,25.51
2023-05-04T02:28:17.363Z,25.50
2023-05-04T02:29:17.393Z,25.51
2023-05-04T02:30:17.435Z,25.51
2023-05-04T02:31:17.594Z,25.50
2023-05-04T02:32:17.501Z,25.51
2023-05-04T02:33:17.553Z,25.51
2023-05-04T02:34:17.582Z,25.50
2023-05-04T02:35:17.609Z,25.51
2023-05-04T02:36:17.660Z,25.50
2023-05-04T02:37:17.706Z,25.50
2023-05-04T02:38:17.736Z,25.50
2023-05-04T02:39:17.763Z,25.49
2023-05-04T02:40:17.802Z,25.49
2023-05-04T02:41:17.834Z,25.50
2023-05-04T02:42:17.866Z,25.49
2023-05-04T02:43:17.928Z,25.49
2023-05-04T02:44:17.954Z,25.49
2023-05-04T02:45:17.988Z,25.49
2023-05-04T02:46:18.073Z,25.49
2023-05-04T02:47:18.042Z,25.49
2023-05-04T02:48:18.082Z,25.50
2023-05-04T02:49:18.113Z,25.49
2023-05-04T02:50:18.164Z,25.49
2023-05-04T02:51:18.374Z,25.48
2023-05-04T02:52:18.236Z,25.49
2023-05-04T02:53:18.253Z,25.48
2023-05-04T02:54:18.284Z,25.48
2023-05-04T02:55:18.328Z,25.49
2023-05-04T02:56:18.334Z,25.48
2023-05-04T02:57:18.370Z,25.49
2023-05-04T02:58:18.422Z,25.48
2023-05-04T02:59:18.447Z,25.49
2023-05-04T03:00:18.473Z,25.48
2023-05-04T03:01:18.528Z,25.48
2023-05-04T03:02:18.545Z,25.49
2023-05-04T03:03:18.578Z,25.48
2023-05-04T03:04:18.593Z,25.48
2023-05-04T03:05:18.642Z,25.48
2023-05-04T03:06:18.686Z,25.48
2023-05-04T03:07:18.708Z,25.48
2023-05-04T03:08:18.749Z,25.48
2023-05-04T03:09:18.758Z,25.48
2023-05-04T03:10:18.793Z,25.47
2023-05-04T03:11:18.828Z,25.47
2023-05-04T03:12:18.849Z,25.47
2023-05-04T03:13:19.004Z,25.48
2023-05-04T03:14:18.940Z,25.47
2023-05-04T03:15:18.962Z,25.47
2023-05-04T03:16:19.083Z,25.47
2023-05-04T03:17:19.043Z,25.47
2023-05-04T03:18:19.047Z,25.47
2023-05-04T03:19:19.098Z,25.47
2023-05-04T03:20:19.123Z,25.47
2023-05-04T03:21:19.166Z,25.47
2023-05-04T03:22:19.205Z,25.46
2023-05-04T03:23:19.229Z,25.47
2023-05-04T03:24:19.268Z,25.47
2023-05-04T03:25:19.296Z,25.47
2023-05-04T03:26:19.328Z,25.46
2023-05-04T03:27:19.361Z,25.46
2023-05-04T03:28:19.403Z,25.46
2023-05-04T03:29:19.434Z,25.46
2023-05-04T03:30:19.468Z,25.46
2023-05-04T03:31:19.545Z,25.46
2023-05-04T03:32:19.547Z,25.46
2023-05-04T03:33:19.584Z,25.46
2023-05-04T03:34:19.618Z,25.46
2023-05-04T03:35:24.738Z,25.46
2023-05-04T03:36:20.630Z,25.46
2023-05-04T03:37:19.639Z,25.45
2023-05-04T03:38:19.624Z,25.45
2023-05-04T03:39:19.732Z,25.46
2023-05-04T03:40:19.601Z,25.46
2023-05-04T03:41:19.615Z,25.46
2023-05-04T03:42:19.604Z,25.45
2023-05-04T03:43:19.579Z,25.46
2023-05-04T03:44:19.596Z,25.45
2023-05-04T03:45:19.592Z,25.45
2023-05-04T03:46:19.594Z,25.45
2023-05-04T03:47:19.584Z,25.45
2023-05-04T03:48:19.596Z,25.45
2023-05-04T03:49:19.610Z,25.45
2023-05-04T03:50:19.669Z,25.45
2023-05-04T03:51:19.700Z,25.45
2023-05-04T03:52:19.719Z,25.45
2023-05-04T03:53:19.781Z,25.44
2023-05-04T03:54:19.801Z,25.44
2023-05-04T03:55:19.818Z,25.44
2023-05-04T03:56:19.899Z,25.44
2023-05-04T03:57:19.913Z,25.44
2023-05-04T03:58:19.935Z,25.44
2023-05-04T03:59:19.992Z,25.44
2023-05-04T04:00:20.053Z,25.44
2023-05-04T04:01:20.061Z,25.44
2023-05-04T04:02:20.133Z,25.44
2023-05-04T04:03:20.222Z,25.45
2023-05-04T04:04:20.195Z,25.44
2023-05-04T04:05:20.209Z,25.44
2023-05-04T04:06:20.250Z,25.44
2023-05-04T04:07:20.285Z,25.44
2023-05-04T04:08:20.304Z,25.44
2023-05-04T04:09:20.359Z,25.43
2023-05-04T04:10:20.383Z,25.43
2023-05-04T04:11:20.408Z,25.44
2023-05-04T04:12:20.449Z,25.44
2023-05-04T04:13:20.503Z,25.45
2023-05-04T04:14:20.527Z,25.44
2023-05-04T04:15:20.566Z,25.43
2023-05-04T04:16:20.687Z,25.44
2023-05-04T04:17:20.684Z,25.44
2023-05-04T04:18:20.669Z,25.44
2023-05-04T04:19:20.702Z,25.43
2023-05-04T04:20:20.753Z,25.44
2023-05-04T04:21:20.782Z,25.43
2023-05-04T04:22:20.838Z,25.44
2023-05-04T04:23:20.864Z,25.43
2023-05-04T04:24:20.893Z,25.44
2023-05-04T04:25:20.951Z,25.44
2023-05-04T04:26:20.985Z,25.44
2023-05-04T04:27:21.091Z,25.43
2023-05-04T04:28:21.037Z,25.43
2023-05-04T04:29:21.093Z,25.44
2023-05-04T04:30:21.131Z,25.43
2023-05-04T04:31:21.200Z,25.43
2023-05-04T04:32:21.200Z,25.43
2023-05-04T04:33:21.241Z,25.43
2023-05-04T04:34:21.275Z,25.44
2023-05-04T04:35:21.336Z,25.43
2023-05-04T04:36:21.363Z,25.44
2023-05-04T04:37:21.409Z,25.43
2023-05-04T04:38:21.466Z,25.43
2023-05-04T04:39:21.507Z,25.43
2023-05-04T04:40:21.534Z,25.43
2023-05-04T04:41:21.590Z,25.43
2023-05-04T04:42:21.710Z,25.42
2023-05-04T04:43:21.762Z,25.43
2023-05-04T04:44:21.740Z,25.43
2023-05-04T04:45:21.818Z,25.43
2023-05-04T04:46:21.854Z,25.43
2023-05-04T04:47:21.846Z,25.43
2023-05-04T04:48:21.908Z,25.43
2023-05-04T04:49:21.937Z,25.44
2023-05-04T04:50:22.001Z,25.42
2023-05-04T04:51:22.021Z,25.43
2023-05-04T04:52:22.051Z,25.43
2023-05-04T04:53:22.100Z,25.43
2023-05-04T04:54:22.131Z,25.43
2023-05-04T04:55:22.193Z,25.43
2023-05-04T04:56:22.235Z,25.43
2023-05-04T04:57:22.272Z,25.44
2023-05-04T04:58:22.300Z,25.47
2023-05-04T04:59:22.361Z,25.50
2023-05-04T05:00:22.393Z,25.50
2023-05-04T05:01:22.473Z,25.50
2023-05-04T05:02:22.454Z,25.51
2023-05-04T05:03:22.483Z,25.53
2023-05-04T05:04:22.548Z,25.54
2023-05-04T05:05:22.558Z,25.54
2023-05-04T05:06:22.567Z,25.56
2023-05-04T05:07:22.582Z,25.57
2023-05-04T05:08:22.637Z,25.58
2023-05-04T05:09:22.636Z,25.58
2023-05-04T05:10:22.656Z,25.60
2023-05-04T05:11:22.673Z,25.60
2023-05-04T05:12:22.705Z,25.62
2023-05-04T05:13:22.732Z,25.63
2023-05-04T05:14:22.762Z,25.63
2023-05-04T05:15:22.780Z,25.64
2023-05-04T05:16:22.876Z,25.65
2023-05-04T05:17:22.886Z,25.65
2023-05-04T05:18:22.819Z,25.66
2023-05-04T05:19:22.825Z,25.67
2023-05-04T05:20:22.875Z,25.67
2023-05-04T05:21:22.862Z,25.68
2023-05-04T05:22:22.870Z,25.69
2023-05-04T05:23:22.882Z,25.69
2023-05-04T05:24:22.925Z,25.70
2023-05-04T05:25:22.922Z,25.70
2023-05-04T05:26:22.940Z,25.71
2023-05-04T05:27:23.405Z,25.72
2023-05-04T05:28:22.995Z,25.76
2023-05-04T05:29:22.984Z,25.81
2023-05-04T05:30:22.981Z,25.83
2023-05-04T05:31:22.987Z,25.88
2023-05-04T05:32:22.973Z,25.92
2023-05-04T05:33:22.986Z,25.97
2023-05-04T05:34:23.006Z,25.99
2023-05-04T05:35:23.024Z,26.03
2023-05-04T05:36:23.032Z,26.07
2023-05-04T05:37:23.403Z,26.09
2023-05-04T05:38:23.058Z,26.12
2023-05-04T05:39:23.134Z,26.15
2023-05-04T05:40:23.168Z,26.17
2023-05-04T05:41:23.188Z,26.18
2023-05-04T05:42:23.404Z,26.21
2023-05-04T05:43:23.295Z,26.22
2023-05-04T05:44:23.361Z,26.24
2023-05-04T05:45:23.406Z,26.26
2023-05-04T05:46:23.538Z,26.29
2023-05-04T05:47:23.525Z,26.32
2023-05-04T05:48:23.586Z,26.36
2023-05-04T05:49:23.609Z,26.40
2023-05-04T05:50:23.648Z,26.44
2023-05-04T05:51:23.698Z,26.46
2023-05-04T05:52:23.744Z,26.48
2023-05-04T05:53:23.784Z,26.48
2023-05-04T05:54:23.838Z,26.46
2023-05-04T05:55:23.884Z,26.44
2023-05-04T05:56:23.896Z,26.39
2023-05-04T05:57:23.896Z,26.35
2023-05-04T05:58:23.903Z,26.29
2023-05-04T05:59:23.908Z,26.23
2023-05-04T06:00:23.963Z,26.17
2023-05-04T06:01:24.293Z,26.11
2023-05-04T06:02:24.144Z,26.06
2023-05-04T06:03:24.251Z,25.99
2023-05-04T06:04:24.147Z,25.96
2023-05-04T06:05:24.166Z,25.93
2023-05-04T06:06:24.187Z,25.92
2023-05-04T06:07:24.232Z,25.93
2023-05-04T06:08:24.271Z,25.93
2023-05-04T06:09:24.272Z,25.94
2023-05-04T06:10:24.262Z,25.97
2023-05-04T06:11:24.288Z,26.01
2023-05-04T06:12:24.267Z,26.04
2023-05-04T06:13:24.251Z,26.06
2023-05-04T06:14:24.300Z,26.08
2023-05-04T06:15:24.340Z,26.11
2023-05-04T06:16:24.409Z,26.15
2023-05-04T06:17:24.408Z,26.16
2023-05-04T06:18:24.392Z,26.19
2023-05-04T06:19:24.435Z,26.20
2023-05-04T06:20:24.436Z,26.21
2023-05-04T06:21:24.457Z,26.23
2023-05-04T06:22:24.479Z,26.26
2023-05-04T06:23:24.515Z,26.27
2023-05-04T06:24:24.574Z,26.24
2023-05-04T06:25:24.661Z,26.24
2023-05-04T06:26:24.738Z,26.23
2023-05-04T06:27:24.780Z,26.22
2023-05-04T06:28:24.854Z,26.22
2023-05-04T06:29:24.921Z,26.24
2023-05-04T06:30:24.961Z,26.25
2023-05-04T06:31:25.013Z,26.18
2023-05-04T06:32:25.480Z,26.09
2023-05-04T06:33:25.101Z,25.94
2023-05-04T06:34:25.064Z,25.75
2023-05-04T06:35:25.181Z,25.59
2023-05-04T06:36:25.156Z,25.40
2023-05-04T06:37:25.461Z,25.24
2023-05-04T06:38:25.235Z,25.08
2023-05-04T06:39:25.222Z,24.95
2023-05-04T06:40:25.243Z,24.88
2023-05-04T06:41:25.292Z,24.89
2023-05-04T06:42:25.273Z,24.91
2023-05-04T06:43:25.307Z,24.95
2023-05-04T06:44:25.339Z,24.99
2023-05-04T06:45:25.331Z,25.04
2023-05-04T06:46:25.450Z,25.09
2023-05-04T06:47:25.473Z,25.15
2023-05-04T06:48:25.489Z,25.21
2023-05-04T06:49:25.467Z,25.25
2023-05-04T06:50:25.477Z,25.32
2023-05-04T06:51:25.549Z,25.38
2023-05-04T06:52:25.612Z,25.43
2023-05-04T06:53:25.637Z,25.48
2023-05-04T06:54:25.696Z,25.53
2023-05-04T06:55:25.766Z,25.57
2023-05-04T06:56:25.744Z,25.62
2023-05-04T06:57:25.765Z,25.67
2023-05-04T06:58:25.782Z,25.70
2023-05-04T06:59:25.836Z,25.74
2023-05-04T07:00:25.834Z,25.79
2023-05-04T07:01:25.934Z,25.83
2023-05-04T07:02:26.002Z,25.86
2023-05-04T07:03:26.111Z,25.90
2023-05-04T07:04:26.191Z,25.93
2023-05-04T07:05:26.297Z,25.95
2023-05-04T07:06:26.374Z,25.99
2023-05-04T07:07:26.422Z,26.01
2023-05-04T07:08:26.490Z,26.03
2023-05-04T07:09:26.593Z,26.05
2023-05-04T07:10:26.658Z,26.07
2023-05-04T07:11:26.724Z,26.09
2023-05-04T07:12:26.781Z,26.10
2023-05-04T07:13:26.832Z,26.13
2023-05-04T07:14:26.883Z,26.16
2023-05-04T07:15:26.939Z,26.17
2023-05-04T07:16:27.165Z,26.18
2023-05-04T07:17:27.451Z,26.21
2023-05-04T07:18:27.099Z,26.22
2023-05-04T07:19:27.148Z,26.25
2023-05-04T07:20:27.234Z,26.25
2023-05-04T07:21:28.835Z,26.27
2023-05-04T07:22:27.435Z,26.28
2023-05-04T07:23:27.520Z,26.31
2023-05-04T07:24:27.532Z,26.31
2023-05-04T07:25:27.528Z,26.33
2023-05-04T07:26:27.573Z,26.34
2023-05-04T07:27:27.920Z,26.36
2023-05-04T07:28:27.637Z,26.38
2023-05-04T07:29:27.705Z,26.40
2023-05-04T07:30:27.723Z,26.42
2023-05-04T07:31:30.168Z,26.44
2023-05-04T07:32:28.029Z,26.45
2023-05-04T07:33:27.790Z,26.46
2023-05-04T07:34:41.767Z,26.46
2023-05-04T07:35:28.746Z,26.47
2023-05-04T07:36:27.761Z,26.48
2023-05-04T07:37:27.906Z,26.50
2023-05-04T07:38:27.695Z,26.50
2023-05-04T07:39:27.709Z,26.52
2023-05-04T07:40:27.716Z,26.51
2023-05-04T07:41:27.684Z,26.52
2023-05-04T07:42:28.049Z,26.52
2023-05-04T07:43:27.674Z,26.52
2023-05-04T07:44:27.662Z,26.51
2023-05-04T07:45:27.650Z,26.50
2023-05-04T07:46:27.691Z,26.50
2023-05-04T07:47:27.942Z,26.49
2023-05-04T07:48:27.937Z,26.49
2023-05-04T07:49:27.683Z,26.48
2023-05-04T07:50:27.701Z,26.48
2023-05-04T07:51:27.761Z,26.48
2023-05-04T07:52:27.783Z,26.48
2023-05-04T07:53:28.415Z,26.48
2023-05-04T07:54:27.864Z,26.48
2023-05-04T07:55:28.014Z,26.48
2023-05-04T07:56:27.948Z,26.48
2023-05-04T07:57:28.441Z,26.48
2023-05-04T07:58:28.023Z,26.48
2023-05-04T07:59:28.062Z,26.47
2023-05-04T08:00:28.075Z,26.47
2023-05-04T08:01:28.123Z,26.47
2023-05-04T08:02:28.255Z,26.47
2023-05-04T08:03:28.227Z,26.47
2023-05-04T08:04:28.249Z,26.46
2023-05-04T08:05:28.315Z,26.46
2023-05-04T08:06:28.332Z,26.46
2023-05-04T08:07:28.360Z,26.46
2023-05-04T08:08:28.396Z,26.46
2023-05-04T08:09:28.453Z,26.46
2023-05-04T08:10:28.496Z,26.46
2023-05-04T08:11:28.536Z,26.45
2023-05-04T08:12:28.792Z,26.45
2023-05-04T08:13:28.638Z,26.45
2023-05-04T08:14:28.661Z,26.44
2023-05-04T08:15:28.696Z,26.44
2023-05-04T08:16:28.771Z,26.44
2023-05-04T08:17:28.807Z,26.43
2023-05-04T08:18:28.832Z,26.44
2023-05-04T08:19:28.905Z,26.42
2023-05-04T08:20:28.924Z,26.43
2023-05-04T08:21:28.956Z,26.45
2023-05-04T08:22:29.141Z,26.45
2023-05-04T08:23:29.410Z,26.44
2023-05-04T08:24:29.138Z,26.45
2023-05-04T08:25:29.215Z,26.45
2023-05-04T08:26:29.254Z,26.44
2023-05-04T08:27:29.446Z,26.44
2023-05-04T08:28:29.368Z,26.45
2023-05-04T08:29:29.461Z,26.45
2023-05-04T08:30:29.474Z,26.46
2023-05-04T08:31:29.531Z,26.47
2023-05-04T08:32:31.018Z,26.47
2023-05-04T08:33:29.562Z,26.47
2023-05-04T08:34:29.551Z,26.47
2023-05-04T08:35:29.569Z,26.47
2023-05-04T08:36:29.551Z,26.47
2023-05-04T08:37:29.536Z,26.48
2023-05-04T08:38:29.529Z,26.47
2023-05-04T08:39:29.508Z,26.44
2023-05-04T08:40:29.559Z,26.42
2023-05-04T08:41:29.512Z,26.44
2023-05-04T08:42:29.482Z,26.44
2023-05-04T08:43:29.938Z,26.44
2023-05-04T08:44:29.506Z,26.46
2023-05-04T08:45:29.489Z,26.48
2023-05-04T08:46:29.455Z,26.50
2023-05-04T08:47:29.571Z,26.53
2023-05-04T08:48:29.451Z,26.56
2023-05-04T08:49:29.449Z,26.58
2023-05-04T08:50:29.424Z,26.62
2023-05-04T08:51:29.431Z,26.66
2023-05-04T08:52:29.434Z,26.68
2023-05-04T08:53:29.422Z,26.70
2023-05-04T08:54:29.424Z,26.73
2023-05-04T08:55:29.408Z,26.75
2023-05-04T08:56:29.401Z,26.78
2023-05-04T08:57:29.386Z,26.79
2023-05-04T08:58:29.423Z,26.82
2023-05-04T08:59:29.388Z,26.83
2023-05-04T09:00:29.410Z,26.85
2023-05-04T09:01:29.466Z,26.86
2023-05-04T09:02:29.357Z,26.88
2023-05-04T09:03:29.427Z,26.88
2023-05-04T09:04:29.902Z,26.90
2023-05-04T09:05:29.358Z,26.91
2023-05-04T09:06:29.341Z,26.92
2023-05-04T09:07:29.344Z,26.94
2023-05-04T09:08:29.439Z,26.95
2023-05-04T09:09:29.422Z,26.95
2023-05-04T09:10:29.852Z,26.97
2023-05-04T09:11:29.304Z,26.98
2023-05-04T09:12:29.356Z,27.00
2023-05-04T09:13:29.285Z,26.99
2023-05-04T09:14:29.293Z,27.02
2023-05-04T09:15:29.318Z,27.03
2023-05-04T09:16:29.290Z,27.04
2023-05-04T09:17:29.333Z,27.04
2023-05-04T09:18:29.279Z,27.05
2023-05-04T09:19:29.241Z,27.03
2023-05-04T09:20:29.263Z,27.05
2023-05-04T09:21:29.246Z,27.05
2023-05-04T09:22:29.217Z,27.06
2023-05-04T09:23:29.438Z,27.07
2023-05-04T09:24:29.213Z,27.08
2023-05-04T09:25:29.217Z,27.09
2023-05-04T09:26:29.232Z,27.10
2023-05-04T09:27:29.189Z,27.11
2023-05-04T09:28:29.449Z,27.11
2023-05-04T09:29:29.177Z,27.08
2023-05-04T09:30:29.188Z,26.74
2023-05-04T09:31:29.268Z,26.55
2023-05-04T09:32:29.189Z,26.56
2023-05-04T09:33:29.453Z,26.62
2023-05-04T09:34:29.170Z,26.64
2023-05-04T09:35:33.095Z,26.55
2023-05-04T09:36:29.163Z,26.47
2023-05-04T09:37:29.158Z,26.45
2023-05-04T09:38:29.152Z,26.45
2023-05-04T09:39:29.140Z,26.45
2023-05-04T09:40:29.131Z,26.46
2023-05-04T09:41:29.136Z,26.47
2023-05-04T09:42:29.117Z,26.47
2023-05-04T09:43:29.130Z,26.47
2023-05-04T09:44:29.796Z,26.48
2023-05-04T09:45:29.109Z,26.48
2023-05-04T09:46:29.138Z,26.49
2023-05-04T09:47:29.130Z,26.49
2023-05-04T09:48:29.192Z,26.47
2023-05-04T09:49:29.078Z,26.47
2023-05-04T09:50:29.046Z,26.49
2023-05-04T09:51:29.058Z,26.48
2023-05-04T09:52:29.047Z,26.51
2023-05-04T09:53:29.479Z,26.42
2023-05-04T09:54:29.032Z,26.17
2023-05-04T09:55:29.053Z,25.84
2023-05-04T09:56:29.052Z,25.80
2023-05-04T09:57:29.049Z,25.84
2023-05-04T09:58:29.448Z,25.82
2023-05-04T09:59:29.083Z,25.82
2023-05-04T10:00:29.154Z,25.86
2023-05-04T10:01:29.198Z,25.91
2023-05-04T10:02:29.259Z,25.95
2023-05-04T10:03:29.246Z,25.99
2023-05-04T10:04:29.283Z,26.03
2023-05-04T10:05:29.335Z,26.06
2023-05-04T10:06:29.354Z,26.09
2023-05-04T10:07:29.346Z,26.12
2023-05-04T10:08:29.382Z,26.15
2023-05-04T10:09:29.419Z,26.19
2023-05-04T10:10:29.433Z,26.22
2023-05-04T10:11:29.405Z,26.24
2023-05-04T10:12:29.455Z,26.25
2023-05-04T10:13:29.429Z,26.28
2023-05-04T10:14:29.420Z,26.28
2023-05-04T10:15:29.497Z,26.28
2023-05-04T10:16:29.699Z,26.31
2023-05-04T10:17:29.645Z,26.26
2023-05-04T10:18:29.604Z,25.94
2023-05-04T10:19:29.585Z,25.75
2023-05-04T10:20:29.608Z,25.57
2023-05-04T10:21:29.614Z,25.33
2023-05-04T10:22:29.642Z,25.27
2023-05-04T10:23:29.975Z,25.26
2023-05-04T10:24:29.938Z,25.29
2023-05-04T10:25:29.799Z,25.29
2023-05-04T10:26:29.847Z,25.18
2023-05-04T10:27:29.903Z,24.96
2023-05-04T10:28:29.930Z,24.75
2023-05-04T10:29:30.044Z,24.62
2023-05-04T10:30:30.035Z,24.53
2023-05-04T10:31:30.181Z,24.29
2023-05-04T10:32:30.128Z,24.24
2023-05-04T10:33:30.448Z,24.34
2023-05-04T10:34:30.132Z,24.29
2023-05-04T10:35:30.238Z,24.19
2023-05-04T10:36:30.174Z,24.02
2023-05-04T10:37:30.184Z,24.07
2023-05-04T10:38:30.253Z,24.25
2023-05-04T10:39:30.314Z,24.36
2023-05-04T10:40:30.267Z,24.31
2023-05-04T10:41:30.277Z,24.38
2023-05-04T10:42:30.268Z,24.53
2023-05-04T10:43:30.433Z,24.67
2023-05-04T10:44:30.465Z,24.79
2023-05-04T10:45:30.438Z,24.90
2023-05-04T10:46:30.487Z,25.00
2023-05-04T10:47:30.627Z,25.05
2023-05-04T10:48:30.598Z,25.07
2023-05-04T10:49:30.938Z,24.89
2023-05-04T10:50:30.690Z,24.59
2023-05-04T10:51:42.414Z,24.46
2023-05-04T10:52:31.682Z,24.57
2023-05-04T10:53:30.960Z,24.69
2023-05-04T10:54:30.932Z,24.82
2023-05-04T10:55:30.647Z,24.95
2023-05-04T10:56:30.650Z,25.05
2023-05-04T10:57:30.648Z,25.16
2023-05-04T10:58:30.630Z,25.25
2023-05-04T10:59:30.948Z,25.35
2023-05-04T11:00:30.606Z,25.44
2023-05-04T11:01:30.631Z,25.52
2023-05-04T11:02:33.155Z,25.60
2023-05-04T11:03:30.780Z,25.65
2023-05-04T11:04:30.970Z,25.72
2023-05-04T11:05:30.572Z,25.77
2023-05-04T11:06:30.569Z,25.83
2023-05-04T11:07:30.562Z,25.90
2023-05-04T11:08:30.549Z,25.96
2023-05-04T11:09:30.565Z,26.01
2023-05-04T11:10:30.555Z,26.06
2023-05-04T11:11:30.531Z,26.11
2023-05-04T11:12:30.556Z,26.14
2023-05-04T11:13:30.518Z,26.18
2023-05-04T11:14:30.974Z,26.16
2023-05-04T11:15:30.520Z,26.12
2023-05-04T11:16:30.507Z,26.03
2023-05-04T11:17:30.508Z,25.78
2023-05-04T11:18:31.066Z,25.66
2023-05-04T11:19:30.486Z,25.71
2023-05-04T11:20:30.469Z,25.76
2023-05-04T11:21:30.449Z,25.81
2023-05-04T11:22:30.453Z,25.87
2023-05-04T11:23:30.442Z,25.91
2023-05-04T11:24:30.426Z,25.95
2023-05-04T11:25:30.445Z,25.99
2023-05-04T11:26:30.424Z,26.02
2023-05-04T11:27:30.413Z,26.05
2023-05-04T11:28:30.416Z,26.09
2023-05-04T11:29:30.401Z,26.11
2023-05-04T11:30:30.386Z,26.14
2023-05-04T11:31:30.455Z,26.16
2023-05-04T11:32:30.399Z,26.19
2023-05-04T11:33:30.396Z,26.22
2023-05-04T11:34:30.426Z,26.23
2023-05-04T11:35:30.376Z,26.24
2023-05-04T11:36:30.351Z,26.26
2023-05-04T11:37:30.371Z,26.27
2023-05-04T11:38:30.345Z,26.28
2023-05-04T11:39:30.426Z,26.29
2023-05-04T11:40:30.320Z,26.31
2023-05-04T11:41:30.335Z,26.31
2023-05-04T11:42:30.307Z,26.33
2023-05-04T11:43:30.325Z,26.34
2023-05-04T11:44:30.377Z,26.35
2023-05-04T11:45:30.285Z,26.36
2023-05-04T11:46:30.377Z,26.37
2023-05-04T11:47:30.420Z,26.38
2023-05-04T11:48:30.436Z,26.38
2023-05-04T11:49:30.479Z,26.39
2023-05-04T11:50:30.526Z,26.40
2023-05-04T11:51:30.552Z,26.40
2023-05-04T11:52:30.614Z,26.42
2023-05-04T11:53:30.670Z,26.42
2023-05-04T11:54:30.695Z,26.42
2023-05-04T11:55:30.777Z,26.42
2023-05-04T11:56:30.782Z,26.43
2023-05-04T11:57:30.869Z,26.44
2023-05-04T11:58:30.882Z,26.45
2023-05-04T11:59:30.928Z,26.47
2023-05-04T12:00:30.959Z,26.48
2023-05-04T12:01:31.023Z,26.49
2023-05-04T12:02:31.099Z,26.49
2023-05-04T12:03:43.920Z,26.50
2023-05-04T12:04:32.058Z,26.50
2023-05-04T12:05:31.149Z,26.51
2023-05-04T12:06:31.059Z,26.52
2023-05-04T12:07:31.043Z,26.53
2023-05-04T12:08:31.038Z,26.54
2023-05-04T12:09:31.020Z,26.56
2023-05-04T12:10:31.022Z,26.56
2023-05-04T12:11:31.006Z,26.57
2023-05-04T12:12:32.895Z,26.57
2023-05-04T12:13:31.015Z,26.58
2023-05-04T12:14:31.038Z,26.58
2023-05-04T12:15:31.103Z,26.59
2023-05-04T12:16:31.135Z,26.60
2023-05-04T12:17:31.163Z,26.61
2023-05-04T12:18:31.146Z,26.61
2023-05-04T12:19:31.178Z,26.62
2023-05-04T12:20:31.486Z,26.62
2023-05-04T12:21:31.242Z,26.63
2023-05-04T12:22:31.265Z,26.64
2023-05-04T12:23:31.284Z,26.65
2023-05-04T12:24:31.328Z,26.65
2023-05-04T12:25:31.388Z,26.66
2023-05-04T12:26:31.411Z,26.66
2023-05-04T12:27:31.831Z,26.67
2023-05-04T12:28:31.407Z,26.68
2023-05-04T12:29:31.439Z,26.68
2023-05-04T12:30:31.470Z,26.69
2023-05-04T12:31:31.513Z,26.70
2023-05-04T12:32:31.545Z,26.70
2023-05-04T12:33:31.550Z,26.69
2023-05-04T12:34:31.566Z,26.69
2023-05-04T12:35:31.590Z,26.68
2023-05-04T12:36:31.614Z,26.67
2023-05-04T12:37:31.646Z,26.66
2023-05-04T12:38:31.679Z,26.66
2023-05-04T12:39:31.721Z,26.67
2023-05-04T12:40:31.722Z,26.66
2023-05-04T12:41:31.767Z,26.66
2023-05-04T12:42:31.783Z,26.66
2023-05-04T12:43:31.994Z,26.66
2023-05-04T12:44:31.847Z,26.66
2023-05-04T12:45:31.882Z,26.66
2023-05-04T12:46:31.991Z,26.66
2023-05-04T12:47:31.952Z,26.66
2023-05-04T12:48:31.984Z,26.66
2023-05-04T12:49:32.027Z,26.65
2023-05-04T12:50:32.071Z,26.66
2023-05-04T12:51:32.098Z,26.65
2023-05-04T12:52:32.108Z,26.65